createdAt,value
2023-05-20T00:02:14.983Z,2.97
2023-05-20T00:04:42.175Z,4.28
2023-05-20T00:07:08.790Z,2.55
2023-05-20T00:09:35.288Z,4.20
2023-05-20T00:12:02.618Z,2.53
2023-05-20T00:14:29.058Z,4.32
2023-05-20T00:16:55.558Z,5.28
2023-05-20T00:19:22.202Z,4.38
2023-05-20T00:21:48.830Z,3.95
2023-05-20T00:24:15.272Z,2.92
2023-05-20T00:26:41.841Z,2.63
2023-05-20T00:29:08.282Z,4.78
2023-05-20T00:31:34.798Z,2.90
2023-05-20T00:34:01.208Z,3.92
2023-05-20T00:36:27.693Z,4.57
2023-05-20T00:38:54.148Z,6.32
2023-05-20T00:41:21.526Z,3.72
2023-05-20T00:43:48.170Z,3.67
2023-05-20T00:46:14.753Z,4.45
2023-05-20T00:48:42.987Z,5.35
2023-05-20T00:51:11.010Z,5.63
2023-05-20T00:53:37.572Z,3.13
2023-05-20T00:56:04.871Z,3.40
2023-05-20T00:58:32.170Z,6.97
2023-05-20T01:00:58.666Z,3.85
2023-05-20T01:03:25.590Z,2.47
2023-05-20T01:05:52.261Z,2.90
2023-05-20T01:08:19.079Z,5.05
2023-05-20T01:10:47.980Z,2.67
2023-05-20T01:13:17.421Z,2.45
2023-05-20T01:15:47.442Z,5.85
2023-05-20T01:18:25.605Z,2.83
2023-05-20T01:20:54.538Z,3.13
2023-05-20T01:23:21.839Z,3.13
2023-05-20T01:25:48.331Z,2.63
2023-05-20T01:28:17.947Z,3.25
2023-05-20T01:30:48.262Z,2.53
2023-05-20T01:33:16.396Z,5.72
2023-05-20T01:35:43.094Z,3.55
2023-05-20T01:38:09.702Z,2.83
2023-05-20T01:40:36.215Z,4.82
2023-05-20T01:43:02.943Z,3.92
2023-05-20T01:45:29.370Z,2.90
2023-05-20T01:47:56.073Z,2.80
2023-05-20T01:50:22.697Z,4.20
2023-05-20T01:52:49.144Z,4.25
2023-05-20T01:55:15.612Z,3.05
2023-05-20T01:57:44.050Z,3.88
2023-05-20T02:00:11.267Z,4.45
2023-05-20T02:02:37.920Z,3.83
2023-05-20T02:05:04.778Z,4.03
2023-05-20T02:07:31.341Z,3.53
2023-05-20T02:09:57.836Z,4.13
2023-05-20T02:12:24.332Z,4.32
2023-05-20T02:14:50.932Z,4.55
2023-05-20T02:17:17.882Z,4.55
2023-05-20T02:19:45.923Z,3.67
2023-05-20T02:22:15.998Z,4.78
2023-05-20T02:24:43.537Z,2.97
2023-05-20T02:27:10.252Z,3.65
2023-05-20T02:29:36.930Z,5.68
2023-05-20T02:32:03.609Z,2.75
2023-05-20T02:34:31.558Z,3.15
2023-05-20T02:36:58.133Z,4.45
2023-05-20T02:39:24.655Z,3.53
2023-05-20T02:41:51.088Z,5.35
2023-05-20T02:44:18.133Z,3.63
2023-05-20T02:46:44.645Z,4.20
2023-05-20T02:49:11.081Z,6.10
2023-05-20T02:51:37.527Z,3.70
2023-05-20T02:54:04.160Z,3.28
2023-05-20T02:56:32.469Z,3.72
2023-05-20T02:58:58.955Z,3.88
2023-05-20T03:01:25.499Z,4.72
2023-05-20T03:03:52.455Z,5.80
2023-05-20T03:06:18.915Z,4.20
2023-05-20T03:08:45.357Z,4.07
2023-05-20T03:11:11.885Z,4.03
2023-05-20T03:13:38.367Z,3.35
2023-05-20T03:16:05.104Z,3.47
2023-05-20T03:18:31.540Z,3.80
2023-05-20T03:20:58.135Z,3.92
2023-05-20T03:23:24.672Z,4.43
2023-05-20T03:25:51.594Z,3.25
2023-05-20T03:28:18.024Z,3.42
2023-05-20T03:30:44.541Z,5.80
2023-05-20T03:33:11.002Z,5.25
2023-05-20T03:35:37.662Z,3.88
2023-05-20T03:38:04.490Z,4.22
2023-05-20T03:40:31.093Z,4.05
2023-05-20T03:42:57.574Z,3.97
2023-05-20T03:45:24.069Z,7.20
2023-05-20T03:47:50.665Z,4.05
2023-05-20T03:50:17.195Z,3.67
2023-05-20T03:52:43.911Z,3.60
2023-05-20T03:55:10.511Z,5.05
2023-05-20T03:57:37.567Z,3.60
2023-05-20T04:00:10.559Z,6.13
2023-05-20T04:02:38.597Z,5.70
2023-05-20T04:05:05.837Z,5.07
2023-05-20T04:07:32.308Z,5.72
2023-05-20T04:09:59.345Z,5.38
2023-05-20T04:12:30.549Z,3.85
2023-05-20T04:15:01.253Z,4.70
2023-05-20T04:17:31.176Z,7.13
2023-05-20T04:19:59.627Z,6.97
2023-05-20T04:22:26.727Z,4.10
2023-05-20T04:24:53.224Z,3.88
2023-05-20T04:27:20.284Z,5.68
2023-05-20T04:29:47.328Z,4.55
2023-05-20T04:32:14.644Z,6.93
2023-05-20T04:34:41.195Z,4.32
2023-05-20T04:37:10.286Z,5.03
2023-05-20T04:39:36.806Z,3.70
2023-05-20T04:42:03.707Z,10.00
2023-05-20T04:44:30.576Z,6.75
2023-05-20T04:47:00.321Z,5.72
2023-05-20T04:49:26.809Z,4.50
2023-05-20T04:51:55.278Z,6.88
2023-05-20T04:54:22.030Z,5.28
2023-05-20T04:56:48.514Z,4.72
2023-05-20T04:59:15.081Z,6.03
2023-05-20T05:01:41.694Z,6.65
2023-05-20T05:04:08.273Z,6.40
2023-05-20T05:06:34.744Z,4.00
2023-05-20T05:09:01.179Z,5.25
2023-05-20T05:11:27.612Z,5.88
2023-05-20T05:13:55.224Z,6.15
2023-05-20T05:16:21.718Z,4.97
2023-05-20T05:18:48.361Z,4.40
2023-05-20T05:21:14.830Z,4.70
2023-05-20T05:23:42.670Z,8.15
2023-05-20T05:26:09.271Z,4.35
2023-05-20T05:28:35.918Z,4.90
2023-05-20T05:31:02.511Z,6.25
2023-05-20T05:33:30.565Z,4.65
2023-05-20T05:35:59.109Z,7.78
2023-05-20T05:38:25.942Z,5.00
2023-05-20T05:40:52.975Z,6.60
2023-05-20T05:43:19.373Z,5.72
2023-05-20T05:45:45.882Z,5.00
2023-05-20T05:48:12.375Z,5.68
2023-05-20T05:50:38.901Z,6.63
2023-05-20T05:53:05.326Z,4.60
2023-05-20T05:55:32.156Z,7.22
2023-05-20T05:57:58.826Z,7.03
2023-05-20T06:00:25.225Z,4.78
2023-05-20T06:02:51.739Z,4.93
2023-05-20T06:05:18.234Z,5.35
2023-05-20T06:07:44.742Z,4.38
2023-05-20T06:10:11.320Z,5.38
2023-05-20T06:12:37.777Z,5.13
2023-05-20T06:15:04.461Z,7.93
2023-05-20T06:17:30.908Z,10.07
2023-05-20T06:19:57.402Z,7.00
2023-05-20T06:22:23.910Z,6.22
2023-05-20T06:24:50.427Z,5.72
2023-05-20T06:27:16.825Z,6.93
2023-05-20T06:29:43.939Z,5.97
2023-05-20T06:32:10.776Z,6.40
2023-05-20T06:34:37.705Z,6.65
2023-05-20T06:37:04.419Z,6.78
2023-05-20T06:39:30.937Z,8.23
2023-05-20T06:41:57.344Z,5.43
2023-05-20T06:44:23.784Z,5.13
2023-05-20T06:46:50.351Z,6.95
2023-05-20T06:49:16.869Z,5.78
2023-05-20T06:51:44.175Z,6.18
2023-05-20T06:54:10.803Z,5.72
2023-05-20T06:56:37.369Z,6.25
2023-05-20T06:59:03.902Z,7.10
2023-05-20T07:01:30.373Z,6.53
2023-05-20T07:03:57.126Z,6.65
2023-05-20T07:06:23.852Z,7.22
2023-05-20T07:08:50.445Z,5.97
2023-05-20T07:11:16.907Z,6.70
2023-05-20T07:13:43.313Z,6.40
2023-05-20T07:16:09.779Z,7.80
2023-05-20T07:18:38.805Z,8.35
2023-05-20T07:21:05.245Z,5.85
2023-05-20T07:23:31.696Z,6.55
2023-05-20T07:25:58.140Z,6.10
2023-05-20T07:28:24.626Z,6.75
2023-05-20T07:30:51.206Z,9.10
2023-05-20T07:33:17.799Z,7.22
2023-05-20T07:35:45.021Z,7.25
2023-05-20T07:38:12.697Z,7.05
2023-05-20T07:40:41.396Z,6.45
2023-05-20T07:43:08.894Z,8.52
2023-05-20T07:45:37.278Z,6.38
2023-05-20T07:48:04.797Z,8.48
2023-05-20T07:50:31.303Z,10.18
2023-05-20T07:52:57.770Z,6.82
2023-05-20T07:55:24.294Z,7.38
2023-05-20T07:57:50.777Z,9.80
2023-05-20T08:00:17.280Z,7.65
2023-05-20T08:02:43.993Z,8.32
2023-05-20T08:05:10.568Z,8.32
2023-05-20T08:07:37.057Z,7.57
2023-05-20T08:10:03.814Z,7.15
2023-05-20T08:12:30.508Z,10.27
2023-05-20T08:14:56.941Z,7.35
2023-05-20T08:17:23.602Z,7.00
2023-05-20T08:19:50.152Z,7.85
2023-05-20T08:22:17.110Z,9.98
2023-05-20T08:24:43.617Z,8.32
2023-05-20T08:27:10.027Z,8.70
2023-05-20T08:29:36.426Z,7.53
2023-05-20T08:32:02.862Z,7.95
2023-05-20T08:34:29.329Z,7.85
2023-05-20T08:36:57.633Z,9.15
2023-05-20T08:39:24.065Z,7.80
2023-05-20T08:41:50.558Z,8.32
2023-05-20T08:44:17.430Z,8.38
2023-05-20T08:46:44.170Z,7.78
2023-05-20T08:49:10.795Z,8.43
2023-05-20T08:51:37.498Z,8.00
2023-05-20T08:54:04.060Z,8.23
2023-05-20T08:56:31.672Z,10.60
2023-05-20T08:58:58.224Z,10.35
2023-05-20T09:01:27.792Z,9.13
2023-05-20T09:03:54.266Z,9.20
2023-05-20T09:06:22.133Z,9.63
2023-05-20T09:08:52.835Z,8.00
2023-05-20T09:11:20.130Z,8.23
2023-05-20T09:13:46.633Z,8.50
2023-05-20T09:16:15.178Z,12.98
2023-05-20T09:18:43.411Z,7.80
2023-05-20T09:21:10.316Z,10.13
2023-05-20T09:23:38.057Z,10.75
2023-05-20T09:26:04.479Z,8.77
2023-05-20T09:28:31.074Z,9.80
2023-05-20T09:31:01.437Z,8.68
2023-05-20T09:33:31.995Z,8.32
2023-05-20T09:36:05.863Z,8.65
2023-05-20T09:38:39.254Z,8.10
2023-05-20T09:41:11.993Z,7.67
2023-05-20T09:43:40.044Z,9.82
2023-05-20T09:46:09.154Z,8.52
2023-05-20T09:48:37.275Z,11.55
2023-05-20T09:51:05.099Z,9.48
2023-05-20T09:53:31.636Z,8.13
2023-05-20T09:55:58.680Z,8.52
2023-05-20T09:58:25.582Z,8.07
2023-05-20T10:00:52.701Z,8.45
2023-05-20T10:03:21.830Z,8.13
2023-05-20T10:06:14.506Z,10.32
2023-05-20T10:09:07.476Z,8.10
2023-05-20T10:11:54.658Z,8.70
2023-05-20T10:14:41.497Z,9.07
2023-05-20T10:17:39.392Z,13.20
2023-05-20T10:20:09.159Z,8.88
2023-05-20T10:22:35.631Z,8.63
2023-05-20T10:25:07.200Z,9.02
2023-05-20T10:27:45.176Z,8.85
2023-05-20T10:30:22.030Z,22.58
2023-05-20T10:32:57.360Z,12.90
2023-05-20T10:35:28.503Z,8.95
2023-05-20T10:38:06.136Z,8.20
2023-05-20T10:40:32.850Z,9.95
2023-05-20T10:43:09.274Z,12.85
2023-05-20T10:45:37.376Z,9.15
2023-05-20T10:48:04.133Z,8.68
2023-05-20T10:50:38.227Z,9.38
2023-05-20T10:53:06.959Z,10.98
2023-05-20T10:55:38.532Z,8.38
2023-05-20T10:58:06.689Z,8.02
2023-05-20T11:00:37.424Z,9.38
2023-05-20T11:03:05.574Z,8.07
2023-05-20T11:05:32.712Z,8.45
2023-05-20T11:08:16.967Z,10.38
2023-05-20T11:10:51.058Z,7.22
2023-05-20T11:13:40.996Z,7.93
2023-05-20T11:16:07.617Z,8.25
2023-05-20T11:18:34.176Z,7.97
2023-05-20T11:21:01.384Z,7.85
2023-05-20T11:23:29.112Z,7.32
2023-05-20T11:25:56.817Z,11.88
2023-05-20T11:28:23.927Z,7.75
2023-05-20T11:30:51.628Z,7.72
2023-05-20T11:33:18.556Z,7.00
2023-05-20T11:35:49.859Z,7.05
2023-05-20T11:38:16.785Z,7.15
2023-05-20T11:40:50.911Z,7.57
2023-05-20T11:43:18.998Z,8.85
2023-05-20T11:45:47.296Z,7.38
2023-05-20T11:48:15.732Z,6.82
2023-05-20T11:50:43.642Z,7.25
2023-05-20T11:53:11.539Z,7.03
2023-05-20T11:55:48.232Z,7.15
2023-05-20T11:58:22.148Z,8.43
2023-05-20T12:00:53.367Z,8.20
2023-05-20T12:03:26.173Z,6.93
2023-05-20T12:05:53.224Z,7.45
2023-05-20T12:08:19.623Z,7.90
2023-05-20T12:10:46.385Z,7.57
2023-05-20T12:13:13.734Z,11.65
2023-05-20T12:15:40.715Z,8.00
2023-05-20T12:18:07.339Z,7.80
2023-05-20T12:20:34.568Z,7.53
2023-05-20T12:23:01.723Z,8.70
2023-05-20T12:25:30.236Z,8.18
2023-05-20T12:27:56.876Z,9.18
2023-05-20T12:30:23.731Z,9.32
2023-05-20T12:32:52.307Z,8.00
2023-05-20T12:35:26.356Z,11.27
2023-05-20T12:37:52.848Z,9.60
2023-05-20T12:40:19.274Z,7.93
2023-05-20T12:42:45.771Z,8.00
2023-05-20T12:45:13.370Z,7.38
2023-05-20T12:47:39.919Z,7.32
2023-05-20T12:50:07.026Z,7.80
2023-05-20T12:52:33.588Z,7.85
2023-05-20T12:55:00.005Z,7.75
2023-05-20T12:57:26.739Z,9.68
2023-05-20T12:59:53.389Z,9.70
2023-05-20T13:02:20.573Z,9.40
2023-05-20T13:04:47.174Z,7.65
2023-05-20T13:07:13.687Z,8.20
2023-05-20T13:09:40.231Z,8.13
2023-05-20T13:12:07.050Z,8.57
2023-05-20T13:14:33.547Z,8.40
2023-05-20T13:17:00.232Z,8.48
2023-05-20T13:19:26.895Z,8.70
2023-05-20T13:21:56.011Z,8.50
2023-05-20T13:24:22.518Z,7.93
2023-05-20T13:26:49.057Z,7.75
2023-05-20T13:29:16.104Z,7.30
2023-05-20T13:31:42.645Z,7.88
2023-05-20T13:34:09.143Z,8.02
2023-05-20T13:36:35.577Z,7.32
2023-05-20T13:39:01.988Z,7.95
2023-05-20T13:41:28.399Z,8.02
2023-05-20T13:43:54.856Z,7.80
2023-05-20T13:46:21.358Z,8.00
2023-05-20T13:48:47.864Z,8.27
2023-05-20T13:51:14.326Z,7.90
2023-05-20T13:53:41.150Z,8.68
2023-05-20T13:56:09.289Z,9.50
2023-05-20T13:58:36.883Z,8.05
2023-05-20T14:01:04.761Z,7.95
2023-05-20T14:03:33.234Z,8.50
2023-05-20T14:06:00.856Z,9.18
2023-05-20T14:08:27.611Z,11.60
2023-05-20T14:10:55.435Z,9.43
2023-05-20T14:13:22.871Z,9.45
2023-05-20T14:15:54.718Z,8.60
2023-05-20T14:18:21.503Z,9.18
2023-05-20T14:20:48.094Z,7.95
2023-05-20T14:23:14.849Z,8.45
2023-05-20T14:25:41.414Z,8.90
2023-05-20T14:28:07.842Z,8.95
2023-05-20T14:30:34.756Z,9.20
2023-05-20T14:33:01.574Z,8.85
2023-05-20T14:35:27.997Z,7.60
2023-05-20T14:37:54.457Z,8.52
2023-05-20T14:40:20.898Z,7.95
2023-05-20T14:42:47.525Z,8.45
2023-05-20T14:45:13.979Z,7.93
2023-05-20T14:47:40.551Z,9.70
2023-05-20T14:50:07.709Z,8.43
2023-05-20T14:52:34.362Z,9.30
2023-05-20T14:55:00.865Z,9.13
2023-05-20T14:57:27.519Z,8.77
2023-05-20T14:59:54.124Z,8.68
2023-05-20T15:02:20.853Z,8.82
2023-05-20T15:04:48.567Z,8.48
2023-05-20T15:07:15.529Z,8.20
2023-05-20T15:09:42.542Z,10.45
2023-05-20T15:12:10.890Z,9.10
2023-05-20T15:14:37.447Z,9.45
2023-05-20T15:17:04.531Z,9.15
2023-05-20T15:19:32.502Z,8.52
2023-05-20T15:21:59.933Z,8.63
2023-05-20T15:24:26.353Z,8.40
2023-05-20T15:26:53.672Z,11.45
2023-05-20T15:29:20.168Z,10.20
2023-05-20T15:31:46.622Z,10.48
2023-05-20T15:34:13.187Z,9.18
2023-05-20T15:36:39.681Z,8.90
2023-05-20T15:39:06.394Z,9.45
2023-05-20T15:41:32.914Z,8.55
2023-05-20T15:43:59.323Z,9.00
2023-05-20T15:46:26.408Z,9.20
2023-05-20T15:48:56.058Z,10.98
2023-05-20T15:51:23.159Z,8.70
2023-05-20T15:53:49.619Z,8.75
2023-05-20T15:56:16.692Z,9.45
2023-05-20T15:58:44.301Z,9.57
2023-05-20T16:01:10.826Z,8.98
2023-05-20T16:03:37.464Z,8.90
2023-05-20T16:06:04.264Z,8.65
2023-05-20T16:08:30.909Z,9.48
2023-05-20T16:10:57.318Z,8.80
2023-05-20T16:13:23.838Z,8.30
2023-05-20T16:15:50.953Z,8.43
2023-05-20T16:18:17.909Z,8.73
2023-05-20T16:20:44.337Z,8.65
2023-05-20T16:23:10.858Z,8.48
2023-05-20T16:25:37.316Z,9.43
2023-05-20T16:28:03.732Z,9.55
2023-05-20T16:30:30.417Z,8.30
2023-05-20T16:32:56.914Z,9.40
2023-05-20T16:35:23.479Z,8.73
2023-05-20T16:37:49.918Z,9.07
2023-05-20T16:40:16.303Z,10.80
2023-05-20T16:42:44.128Z,9.95
2023-05-20T16:45:11.092Z,10.10
2023-05-20T16:47:37.678Z,8.57
2023-05-20T16:50:04.433Z,8.70
2023-05-20T16:52:31.719Z,9.45
2023-05-20T16:55:02.263Z,9.95
2023-05-20T16:57:28.749Z,9.23
2023-05-20T16:59:55.273Z,14.80
2023-05-20T17:02:21.943Z,15.65
2023-05-20T17:04:48.661Z,9.43
2023-05-20T17:07:15.475Z,9.05
2023-05-20T17:09:42.000Z,8.38
2023-05-20T17:12:08.500Z,9.02
2023-05-20T17:14:35.044Z,9.32
2023-05-20T17:17:01.494Z,8.82
2023-05-20T17:19:28.135Z,9.60
2023-05-20T17:21:54.646Z,9.60
2023-05-20T17:24:21.314Z,11.15
2023-05-20T17:26:47.743Z,10.38
2023-05-20T17:29:15.402Z,11.90
2023-05-20T17:31:41.823Z,11.07
2023-05-20T17:34:08.369Z,10.30
2023-05-20T17:36:34.876Z,10.32
2023-05-20T17:39:04.425Z,9.85
2023-05-20T17:41:31.000Z,10.27
2023-05-20T17:43:57.433Z,11.40
2023-05-20T17:46:23.946Z,11.05
2023-05-20T17:48:50.449Z,10.95
2023-05-20T17:51:16.950Z,12.02
2023-05-20T17:53:43.419Z,11.60
2023-05-20T17:56:09.873Z,13.25
2023-05-20T17:58:36.385Z,11.45
2023-05-20T18:01:02.805Z,10.43
2023-05-20T18:03:29.383Z,12.70
2023-05-20T18:05:56.516Z,14.85
2023-05-20T18:08:25.168Z,11.32
2023-05-20T18:10:52.213Z,10.98
2023-05-20T18:13:18.759Z,10.93
2023-05-20T18:15:45.597Z,12.48
2023-05-20T18:18:12.273Z,12.75
2023-05-20T18:20:38.724Z,12.63
2023-05-20T18:23:05.194Z,12.93
2023-05-20T18:25:31.820Z,11.88
2023-05-20T18:27:58.327Z,12.38
2023-05-20T18:30:24.849Z,13.15
2023-05-20T18:32:51.599Z,14.07
2023-05-20T18:35:18.063Z,12.68
2023-05-20T18:37:44.631Z,13.23
2023-05-20T18:40:11.535Z,12.07
2023-05-20T18:42:38.043Z,13.18
2023-05-20T18:45:04.928Z,13.80
2023-05-20T18:47:31.433Z,13.15
2023-05-20T18:49:57.930Z,13.32
2023-05-20T18:52:24.560Z,13.45
2023-05-20T18:54:51.000Z,13.35
2023-05-20T18:57:17.499Z,12.77
2023-05-20T18:59:43.953Z,18.50
2023-05-20T19:02:10.405Z,14.80
2023-05-20T19:04:36.837Z,14.50
2023-05-20T19:07:03.621Z,14.90
2023-05-20T19:09:30.060Z,14.00
2023-05-20T19:11:58.912Z,14.45
2023-05-20T19:14:25.898Z,15.55
2023-05-20T19:16:52.843Z,15.30
2023-05-20T19:19:19.491Z,15.73
2023-05-20T19:21:46.206Z,14.63
2023-05-20T19:24:12.666Z,14.45
2023-05-20T19:26:39.654Z,15.05
2023-05-20T19:29:06.833Z,15.15
2023-05-20T19:31:33.361Z,16.20
2023-05-20T19:33:59.842Z,14.48
2023-05-20T19:36:26.513Z,15.07
2023-05-20T19:38:52.993Z,16.38
2023-05-20T19:41:19.479Z,15.93
2023-05-20T19:43:46.081Z,14.65
2023-05-20T19:46:12.606Z,16.13
2023-05-20T19:48:39.108Z,16.33
2023-05-20T19:51:05.738Z,15.00
2023-05-20T19:53:32.212Z,16.15
2023-05-20T19:55:58.629Z,16.08
2023-05-20T19:58:25.031Z,17.05
2023-05-20T20:00:51.695Z,17.45
2023-05-20T20:03:18.240Z,16.05
2023-05-20T20:05:44.692Z,15.85
2023-05-20T20:08:11.391Z,16.70
2023-05-20T20:10:37.911Z,15.52
2023-05-20T20:13:04.516Z,28.17
2023-05-20T20:15:32.035Z,17.10
2023-05-20T20:17:59.135Z,17.73
2023-05-20T20:20:26.901Z,15.77
2023-05-20T20:22:53.470Z,16.30
2023-05-20T20:25:20.470Z,16.00
2023-05-20T20:27:48.480Z,15.63
2023-05-20T20:30:15.444Z,14.82
2023-05-20T20:32:42.428Z,15.20
2023-05-20T20:35:09.422Z,18.52
2023-05-20T20:37:37.691Z,17.80
2023-05-20T20:40:13.221Z,17.10
2023-05-20T20:42:41.675Z,16.10
2023-05-20T20:45:08.567Z,15.45
2023-05-20T20:47:35.081Z,17.20
2023-05-20T20:50:03.722Z,16.00
2023-05-20T20:52:30.424Z,15.38
2023-05-20T20:54:57.553Z,17.73
2023-05-20T20:57:25.074Z,17.90
2023-05-20T20:59:53.940Z,15.70
2023-05-20T21:02:20.787Z,17.52
2023-05-20T21:04:47.370Z,16.88
2023-05-20T21:07:17.950Z,17.55
2023-05-20T21:09:46.763Z,16.10
2023-05-20T21:12:13.461Z,16.67
2023-05-20T21:14:40.043Z,16.92
2023-05-20T21:17:12.639Z,19.40
2023-05-20T21:19:42.509Z,15.75
2023-05-20T21:22:26.295Z,14.98
2023-05-20T21:24:54.595Z,17.60
2023-05-20T21:27:21.194Z,18.33
2023-05-20T21:29:48.630Z,17.58
2023-05-20T21:32:15.233Z,17.42
2023-05-20T21:34:41.846Z,15.43
2023-05-20T21:37:08.453Z,18.02
2023-05-20T21:39:35.868Z,15.60
2023-05-20T21:42:02.500Z,16.88
2023-05-20T21:44:30.224Z,18.05
2023-05-20T21:46:56.916Z,16.20
2023-05-20T21:49:23.576Z,16.80
2023-05-20T21:51:50.168Z,15.77
2023-05-20T21:54:16.694Z,19.05
2023-05-20T21:56:57.338Z,15.57
2023-05-20T21:59:26.482Z,16.80
2023-05-20T22:01:56.034Z,18.70
2023-05-20T22:04:23.456Z,18.02
2023-05-20T22:06:50.730Z,16.73
2023-05-20T22:09:17.501Z,18.65
2023-05-20T22:11:45.181Z,15.63
2023-05-20T22:14:16.311Z,15.95
2023-05-20T22:16:46.828Z,16.65
2023-05-20T22:19:15.204Z,15.70
2023-05-20T22:24:14.607Z,14.85
2023-05-20T22:26:41.112Z,17.83
2023-05-20T22:29:07.792Z,15.13
2023-05-20T22:31:34.370Z,16.15
2023-05-20T22:34:03.114Z,15.15
2023-05-20T22:36:34.151Z,18.67
2023-05-20T22:39:02.285Z,15.57
2023-05-20T22:41:28.853Z,16.15
2023-05-20T22:43:56.826Z,14.73
2023-05-20T22:46:23.934Z,15.40
2023-05-20T22:48:55.442Z,15.82
2023-05-20T22:51:22.278Z,19.42
2023-05-20T22:53:49.110Z,16.23
2023-05-20T22:56:16.249Z,19.95
2023-05-20T22:58:44.640Z,14.93
2023-05-20T23:01:11.826Z,16.02
2023-05-20T23:03:39.563Z,16.08
2023-05-20T23:06:06.483Z,15.90
2023-05-20T23:08:32.942Z,15.50
2023-05-20T23:10:59.400Z,15.90
2023-05-20T23:13:27.558Z,15.63
2023-05-20T23:15:54.253Z,15.38
2023-05-20T23:18:20.768Z,15.98
2023-05-20T23:20:47.638Z,16.17
2023-05-20T23:23:14.215Z,18.38
2023-05-20T23:25:41.629Z,15.30
2023-05-20T23:28:09.454Z,15.30
2023-05-20T23:30:36.528Z,20.98
2023-05-20T23:33:03.476Z,14.27
2023-05-20T23:35:30.067Z,14.65
2023-05-20T23:37:57.085Z,14.15
2023-05-20T23:40:23.549Z,15.55
2023-05-20T23:42:49.972Z,14.88
2023-05-20T23:45:17.147Z,14.52
2023-05-20T23:47:43.706Z,20.70
2023-05-20T23:50:10.839Z,14.27
2023-05-20T23:52:37.325Z,16.70
2023-05-20T23:55:04.149Z,15.10
2023-05-20T23:57:30.608Z,15.00
2023-05-20T23:59:58.523Z,16.77
